sensor_id;sensor_type;location;lat;lon;timestamp;P1;durP1;ratioP1;P2;durP2;ratioP2
6077;SDS011;3067;49.470;10.394;2022-11-15T00:02:17;4.63;;;4.33;;
6077;SDS011;3067;49.470;10.394;2022-11-15T00:04:45;7.60;;;5.00;;
6077;SDS011;3067;49.470;10.394;2022-11-15T00:07:13;15.70;;;5.67;;
6077;SDS011;3067;49.470;10.394;2022-11-15T00:09:41;7.33;;;5.47;;
6077;SDS011;3067;49.470;10.394;2022-11-15T00:12:08;11.23;;;5.50;;
6077;SDS011;3067;49.470;10.394;2022-11-15T00:14:35;6.60;;;5.90;;
6077;SDS011;3067;49.470;10.394;2022-11-15T00:17:03;9.93;;;6.70;;
6077;SDS011;3067;49.470;10.394;2022-11-15T00:19:30;10.00;;;6.20;;
6077;SDS011;3067;49.470;10.394;2022-11-15T00:21:58;7.00;;;6.20;;
6077;SDS011;3067;49.470;10.394;2022-11-15T00:24:27;8.60;;;6.33;;
6077;SDS011;3067;49.470;10.394;2022-11-15T00:26:55;10.30;;;6.90;;
6077;SDS011;3067;49.470;10.394;2022-11-15T00:29:22;9.00;;;7.20;;
6077;SDS011;3067;49.470;10.394;2022-11-15T00:31:49;9.80;;;7.20;;
6077;SDS011;3067;49.470;10.394;2022-11-15T00:34:17;10.00;;;6.67;;
6077;SDS011;3067;49.470;10.394;2022-11-15T00:36:44;12.03;;;6.60;;
6077;SDS011;3067;49.470;10.394;2022-11-15T00:39:11;9.63;;;6.97;;
6077;SDS011;3067;49.470;10.394;2022-11-15T00:41:40;10.60;;;5.93;;
6077;SDS011;3067;49.470;10.394;2022-11-15T00:44:07;8.83;;;5.87;;
6077;SDS011;3067;49.470;10.394;2022-11-15T00:46:35;7.23;;;6.20;;
6077;SDS011;3067;49.470;10.394;2022-11-15T00:49:02;12.43;;;7.07;;
6077;SDS011;3067;49.470;10.394;2022-11-15T00:51:29;9.13;;;6.97;;
6077;SDS011;3067;49.470;10.394;2022-11-15T00:53:57;9.80;;;6.90;;
6077;SDS011;3067;49.470;10.394;2022-11-15T00:56:24;10.30;;;6.47;;
6077;SDS011;3067;49.470;10.394;2022-11-15T00:58:53;7.73;;;6.33;;
6077;SDS011;3067;49.470;10.394;2022-11-15T01:01:20;9.83;;;6.10;;
6077;SDS011;3067;49.470;10.394;2022-11-15T01:03:48;9.67;;;5.97;;
6077;SDS011;3067;49.470;10.394;2022-11-15T01:06:15;7.90;;;6.03;;
6077;SDS011;3067;49.470;10.394;2022-11-15T01:08:42;7.43;;;6.17;;
6077;SDS011;3067;49.470;10.394;2022-11-15T01:11:10;8.57;;;6.00;;
6077;SDS011;3067;49.470;10.394;2022-11-15T01:13:38;8.63;;;5.60;;
6077;SDS011;3067;49.470;10.394;2022-11-15T01:16:08;7.00;;;5.20;;
6077;SDS011;3067;49.470;10.394;2022-11-15T01:18:35;7.03;;;5.07;;
6077;SDS011;3067;49.470;10.394;2022-11-15T01:21:07;6.23;;;4.97;;
6077;SDS011;3067;49.470;10.394;2022-11-15T01:23:34;4.90;;;4.43;;
6077;SDS011;3067;49.470;10.394;2022-11-15T01:26:02;9.60;;;4.73;;
6077;SDS011;3067;49.470;10.394;2022-11-15T01:28:30;11.93;;;4.67;;
6077;SDS011;3067;49.470;10.394;2022-11-15T01:30:58;4.43;;;4.03;;
6077;SDS011;3067;49.470;10.394;2022-11-15T01:33:27;4.73;;;4.33;;
6077;SDS011;3067;49.470;10.394;2022-11-15T01:35:55;4.97;;;4.57;;
6077;SDS011;3067;49.470;10.394;2022-11-15T01:38:22;5.20;;;4.70;;
6077;SDS011;3067;49.470;10.394;2022-11-15T01:40:49;5.57;;;5.00;;
6077;SDS011;3067;49.470;10.394;2022-11-15T01:43:21;4.90;;;4.50;;
6077;SDS011;3067;49.470;10.394;2022-11-15T01:45:49;6.30;;;5.13;;
6077;SDS011;3067;49.470;10.394;2022-11-15T01:48:17;6.47;;;4.23;;
6077;SDS011;3067;49.470;10.394;2022-11-15T01:50:45;5.40;;;4.60;;
6077;SDS011;3067;49.470;10.394;2022-11-15T01:53:13;5.03;;;4.53;;
6077;SDS011;3067;49.470;10.394;2022-11-15T01:55:40;6.30;;;4.67;;
6077;SDS011;3067;49.470;10.394;2022-11-15T01:58:08;5.40;;;4.90;;
6077;SDS011;3067;49.470;10.394;2022-11-15T02:00:35;5.53;;;5.03;;
6077;SDS011;3067;49.470;10.394;2022-11-15T02:03:02;8.03;;;4.63;;
6077;SDS011;3067;49.470;10.394;2022-11-15T02:05:30;6.70;;;5.03;;
6077;SDS011;3067;49.470;10.394;2022-11-15T02:07:59;5.57;;;5.07;;
6077;SDS011;3067;49.470;10.394;2022-11-15T02:10:27;5.37;;;4.87;;
6077;SDS011;3067;49.470;10.394;2022-11-15T02:12:54;7.43;;;4.77;;
6077;SDS011;3067;49.470;10.394;2022-11-15T02:15:23;7.10;;;5.07;;
6077;SDS011;3067;49.470;10.394;2022-11-15T02:17:55;5.40;;;4.90;;
6077;SDS011;3067;49.470;10.394;2022-11-15T02:20:31;6.77;;;5.10;;
6077;SDS011;3067;49.470;10.394;2022-11-15T02:25:52;8.70;;;4.97;;
6077;SDS011;3067;49.470;10.394;2022-11-15T02:28:34;10.80;;;5.50;;
6077;SDS011;3067;49.470;10.394;2022-11-15T02:31:07;5.27;;;4.60;;
6077;SDS011;3067;49.470;10.394;2022-11-15T02:33:41;7.03;;;4.63;;
6077;SDS011;3067;49.470;10.394;2022-11-15T02:36:10;7.20;;;4.70;;
6077;SDS011;3067;49.470;10.394;2022-11-15T02:38:40;5.37;;;4.20;;
6077;SDS011;3067;49.470;10.394;2022-11-15T02:41:12;5.47;;;4.67;;
6077;SDS011;3067;49.470;10.394;2022-11-15T02:43:45;5.37;;;4.87;;
6077;SDS011;3067;49.470;10.394;2022-11-15T02:46:27;5.77;;;4.53;;
6077;SDS011;3067;49.470;10.394;2022-11-15T02:49:09;4.87;;;4.47;;
6077;SDS011;3067;49.470;10.394;2022-11-15T02:51:37;4.87;;;4.47;;
6077;SDS011;3067;49.470;10.394;2022-11-15T02:54:05;5.10;;;4.63;;
6077;SDS011;3067;49.470;10.394;2022-11-15T02:56:32;7.80;;;5.30;;
6077;SDS011;3067;49.470;10.394;2022-11-15T02:59:13;6.60;;;5.13;;
6077;SDS011;3067;49.470;10.394;2022-11-15T03:01:45;5.10;;;4.60;;
6077;SDS011;3067;49.470;10.394;2022-11-15T03:04:21;6.63;;;5.10;;
6077;SDS011;3067;49.470;10.394;2022-11-15T03:06:52;5.20;;;4.70;;
6077;SDS011;3067;49.470;10.394;2022-11-15T03:09:23;6.60;;;4.50;;
6077;SDS011;3067;49.470;10.394;2022-11-15T03:11:55;13.57;;;4.90;;
6077;SDS011;3067;49.470;10.394;2022-11-15T03:14:24;5.40;;;4.60;;
6077;SDS011;3067;49.470;10.394;2022-11-15T03:16:56;5.30;;;4.80;;
6077;SDS011;3067;49.470;10.394;2022-11-15T03:19:28;11.73;;;4.60;;
6077;SDS011;3067;49.470;10.394;2022-11-15T03:21:55;7.40;;;4.93;;
6077;SDS011;3067;49.470;10.394;2022-11-15T03:24:25;8.10;;;5.10;;
6077;SDS011;3067;49.470;10.394;2022-11-15T03:26:53;5.83;;;4.60;;
6077;SDS011;3067;49.470;10.394;2022-11-15T03:29:22;13.60;;;5.17;;
6077;SDS011;3067;49.470;10.394;2022-11-15T03:31:52;7.30;;;5.10;;
6077;SDS011;3067;49.470;10.394;2022-11-15T03:34:25;5.30;;;4.73;;
6077;SDS011;3067;49.470;10.394;2022-11-15T03:36:53;5.73;;;5.10;;
6077;SDS011;3067;49.470;10.394;2022-11-15T03:39:21;17.63;;;5.13;;
6077;SDS011;3067;49.470;10.394;2022-11-15T03:41:50;9.60;;;5.00;;
6077;SDS011;3067;49.470;10.394;2022-11-15T03:44:20;6.07;;;4.97;;
6077;SDS011;3067;49.470;10.394;2022-11-15T03:46:54;7.83;;;5.33;;
6077;SDS011;3067;49.470;10.394;2022-11-15T03:49:25;6.63;;;5.07;;
6077;SDS011;3067;49.470;10.394;2022-11-15T03:51:56;7.80;;;4.90;;
6077;SDS011;3067;49.470;10.394;2022-11-15T03:54:23;10.77;;;5.10;;
6077;SDS011;3067;49.470;10.394;2022-11-15T03:56:51;7.17;;;4.93;;
6077;SDS011;3067;49.470;10.394;2022-11-15T03:59:18;7.00;;;5.60;;
6077;SDS011;3067;49.470;10.394;2022-11-15T04:01:45;8.33;;;5.17;;
6077;SDS011;3067;49.470;10.394;2022-11-15T04:04:13;10.23;;;5.50;;
6077;SDS011;3067;49.470;10.394;2022-11-15T04:06:41;5.90;;;5.07;;
6077;SDS011;3067;49.470;10.394;2022-11-15T04:09:08;7.60;;;5.10;;
6077;SDS011;3067;49.470;10.394;2022-11-15T04:11:36;6.03;;;5.40;;
6077;SDS011;3067;49.470;10.394;2022-11-15T04:14:03;7.23;;;5.13;;
6077;SDS011;3067;49.470;10.394;2022-11-15T04:16:30;5.17;;;4.73;;
6077;SDS011;3067;49.470;10.394;2022-11-15T04:18:58;8.20;;;5.90;;
6077;SDS011;3067;49.470;10.394;2022-11-15T04:21:44;6.00;;;5.50;;
6077;SDS011;3067;49.470;10.394;2022-11-15T04:24:29;11.60;;;6.30;;
6077;SDS011;3067;49.470;10.394;2022-11-15T04:26:56;6.77;;;5.30;;
6077;SDS011;3067;49.470;10.394;2022-11-15T04:29:23;6.87;;;5.23;;
6077;SDS011;3067;49.470;10.394;2022-11-15T04:32:03;9.20;;;5.77;;
6077;SDS011;3067;49.470;10.394;2022-11-15T04:34:30;8.60;;;5.80;;
6077;SDS011;3067;49.470;10.394;2022-11-15T04:37:00;9.07;;;5.63;;
6077;SDS011;3067;49.470;10.394;2022-11-15T04:39:38;6.13;;;5.30;;
6077;SDS011;3067;49.470;10.394;2022-11-15T04:42:06;5.67;;;5.00;;
6077;SDS011;3067;49.470;10.394;2022-11-15T04:44:33;9.20;;;5.80;;
6077;SDS011;3067;49.470;10.394;2022-11-15T04:47:00;7.30;;;5.50;;
6077;SDS011;3067;49.470;10.394;2022-11-15T04:49:28;7.40;;;5.50;;
6077;SDS011;3067;49.470;10.394;2022-11-15T04:51:55;7.80;;;5.70;;
6077;SDS011;3067;49.470;10.394;2022-11-15T04:54:24;6.57;;;5.10;;
6077;SDS011;3067;49.470;10.394;2022-11-15T04:56:51;6.63;;;5.70;;
6077;SDS011;3067;49.470;10.394;2022-11-15T04:59:18;6.63;;;5.70;;
6077;SDS011;3067;49.470;10.394;2022-11-15T05:01:46;8.60;;;6.10;;
6077;SDS011;3067;49.470;10.394;2022-11-15T05:04:13;9.20;;;5.87;;
6077;SDS011;3067;49.470;10.394;2022-11-15T05:06:46;8.67;;;5.80;;
6077;SDS011;3067;49.470;10.394;2022-11-15T05:09:13;8.10;;;5.47;;
6077;SDS011;3067;49.470;10.394;2022-11-15T05:11:42;6.23;;;5.40;;
6077;SDS011;3067;49.470;10.394;2022-11-15T05:14:09;7.50;;;5.90;;
6077;SDS011;3067;49.470;10.394;2022-11-15T05:16:37;8.13;;;6.00;;
6077;SDS011;3067;49.470;10.394;2022-11-15T05:19:04;6.63;;;5.37;;
6077;SDS011;3067;49.470;10.394;2022-11-15T05:21:32;5.87;;;5.23;;
6077;SDS011;3067;49.470;10.394;2022-11-15T05:24:00;11.00;;;5.57;;
6077;SDS011;3067;49.470;10.394;2022-11-15T05:26:28;6.33;;;5.50;;
6077;SDS011;3067;49.470;10.394;2022-11-15T05:28:57;7.67;;;5.83;;
6077;SDS011;3067;49.470;10.394;2022-11-15T05:31:26;5.63;;;4.93;;
6077;SDS011;3067;49.470;10.394;2022-11-15T05:33:54;7.73;;;5.13;;
6077;SDS011;3067;49.470;10.394;2022-11-15T05:36:24;7.90;;;5.13;;
6077;SDS011;3067;49.470;10.394;2022-11-15T05:38:54;9.70;;;5.30;;
6077;SDS011;3067;49.470;10.394;2022-11-15T05:41:22;7.10;;;5.30;;
6077;SDS011;3067;49.470;10.394;2022-11-15T05:43:51;10.70;;;5.70;;
6077;SDS011;3067;49.470;10.394;2022-11-15T05:46:20;7.07;;;4.90;;
6077;SDS011;3067;49.470;10.394;2022-11-15T05:48:48;8.50;;;5.43;;
6077;SDS011;3067;49.470;10.394;2022-11-15T05:51:17;7.23;;;5.20;;
6077;SDS011;3067;49.470;10.394;2022-11-15T05:53:45;6.33;;;4.87;;
6077;SDS011;3067;49.470;10.394;2022-11-15T05:56:12;13.13;;;6.53;;
6077;SDS011;3067;49.470;10.394;2022-11-15T05:58:40;6.57;;;4.83;;
6077;SDS011;3067;49.470;10.394;2022-11-15T06:01:08;7.60;;;4.90;;
6077;SDS011;3067;49.470;10.394;2022-11-15T06:03:37;7.60;;;4.90;;
6077;SDS011;3067;49.470;10.394;2022-11-15T06:06:04;7.00;;;5.30;;
6077;SDS011;3067;49.470;10.394;2022-11-15T06:08:32;8.83;;;5.37;;
6077;SDS011;3067;49.470;10.394;2022-11-15T06:11:03;11.90;;;5.87;;
6077;SDS011;3067;49.470;10.394;2022-11-15T06:13:30;5.97;;;5.23;;
6077;SDS011;3067;49.470;10.394;2022-11-15T06:15:58;7.40;;;5.67;;
6077;SDS011;3067;49.470;10.394;2022-11-15T06:18:25;6.73;;;5.80;;
6077;SDS011;3067;49.470;10.394;2022-11-15T06:20:54;8.20;;;5.93;;
6077;SDS011;3067;49.470;10.394;2022-11-15T06:23:25;6.17;;;5.57;;
6077;SDS011;3067;49.470;10.394;2022-11-15T06:25:52;9.60;;;5.50;;
6077;SDS011;3067;49.470;10.394;2022-11-15T06:28:20;6.47;;;5.50;;
6077;SDS011;3067;49.470;10.394;2022-11-15T06:30:47;7.60;;;5.53;;
6077;SDS011;3067;49.470;10.394;2022-11-15T06:33:14;10.53;;;5.60;;
6077;SDS011;3067;49.470;10.394;2022-11-15T06:35:41;6.10;;;5.50;;
6077;SDS011;3067;49.470;10.394;2022-11-15T06:38:10;6.90;;;5.40;;
6077;SDS011;3067;49.470;10.394;2022-11-15T06:40:38;7.47;;;6.00;;
6077;SDS011;3067;49.470;10.394;2022-11-15T06:43:05;9.17;;;5.93;;
6077;SDS011;3067;49.470;10.394;2022-11-15T06:45:33;8.30;;;6.17;;
6077;SDS011;3067;49.470;10.394;2022-11-15T06:48:00;7.57;;;5.50;;
6077;SDS011;3067;49.470;10.394;2022-11-15T06:50:28;6.60;;;5.90;;
6077;SDS011;3067;49.470;10.394;2022-11-15T06:52:55;10.67;;;5.50;;
6077;SDS011;3067;49.470;10.394;2022-11-15T06:55:28;6.70;;;5.60;;
6077;SDS011;3067;49.470;10.394;2022-11-15T06:57:55;7.40;;;5.77;;
6077;SDS011;3067;49.470;10.394;2022-11-15T07:00:23;9.03;;;5.10;;
6077;SDS011;3067;49.470;10.394;2022-11-15T07:02:50;7.93;;;5.50;;
6077;SDS011;3067;49.470;10.394;2022-11-15T07:05:17;6.03;;;5.03;;
6077;SDS011;3067;49.470;10.394;2022-11-15T07:07:50;6.17;;;5.57;;
6077;SDS011;3067;49.470;10.394;2022-11-15T07:10:18;6.83;;;5.37;;
6077;SDS011;3067;49.470;10.394;2022-11-15T07:12:47;6.47;;;5.77;;
6077;SDS011;3067;49.470;10.394;2022-11-15T07:15:15;9.40;;;5.80;;
6077;SDS011;3067;49.470;10.394;2022-11-15T07:17:42;7.67;;;5.93;;
6077;SDS011;3067;49.470;10.394;2022-11-15T07:20:10;10.10;;;6.10;;
6077;SDS011;3067;49.470;10.394;2022-11-15T07:22:38;9.37;;;5.63;;
6077;SDS011;3067;49.470;10.394;2022-11-15T07:25:06;10.23;;;6.13;;
6077;SDS011;3067;49.470;10.394;2022-11-15T07:27:33;8.93;;;6.13;;
6077;SDS011;3067;49.470;10.394;2022-11-15T07:30:02;6.90;;;5.70;;
6077;SDS011;3067;49.470;10.394;2022-11-15T07:32:30;8.63;;;6.13;;
6077;SDS011;3067;49.470;10.394;2022-11-15T07:34:57;11.13;;;6.13;;
6077;SDS011;3067;49.470;10.394;2022-11-15T07:37:24;7.10;;;6.23;;
6077;SDS011;3067;49.470;10.394;2022-11-15T07:39:52;9.23;;;6.53;;
6077;SDS011;3067;49.470;10.394;2022-11-15T07:42:19;8.37;;;6.23;;
6077;SDS011;3067;49.470;10.394;2022-11-15T07:45:05;8.33;;;6.17;;
6077;SDS011;3067;49.470;10.394;2022-11-15T07:47:33;8.93;;;5.87;;
6077;SDS011;3067;49.470;10.394;2022-11-15T07:50:00;10.50;;;6.13;;
6077;SDS011;3067;49.470;10.394;2022-11-15T07:52:27;10.00;;;6.73;;
6077;SDS011;3067;49.470;10.394;2022-11-15T07:54:55;9.50;;;7.23;;
6077;SDS011;3067;49.470;10.394;2022-11-15T07:57:22;19.17;;;7.00;;
6077;SDS011;3067;49.470;10.394;2022-11-15T07:59:49;13.50;;;7.43;;
6077;SDS011;3067;49.470;10.394;2022-11-15T08:02:18;13.90;;;7.63;;
6077;SDS011;3067;49.470;10.394;2022-11-15T08:04:45;11.13;;;7.70;;
6077;SDS011;3067;49.470;10.394;2022-11-15T08:07:13;15.23;;;8.27;;
6077;SDS011;3067;49.470;10.394;2022-11-15T08:09:40;13.90;;;8.33;;
6077;SDS011;3067;49.470;10.394;2022-11-15T08:12:07;11.10;;;7.30;;
6077;SDS011;3067;49.470;10.394;2022-11-15T08:14:35;14.80;;;8.50;;
6077;SDS011;3067;49.470;10.394;2022-11-15T08:17:03;9.83;;;6.83;;
6077;SDS011;3067;49.470;10.394;2022-11-15T08:19:32;16.53;;;8.80;;
6077;SDS011;3067;49.470;10.394;2022-11-15T08:21:59;20.73;;;7.50;;
6077;SDS011;3067;49.470;10.394;2022-11-15T08:24:26;18.13;;;6.97;;
6077;SDS011;3067;49.470;10.394;2022-11-15T08:26:54;10.87;;;7.13;;
6077;SDS011;3067;49.470;10.394;2022-11-15T08:29:21;11.63;;;7.00;;
6077;SDS011;3067;49.470;10.394;2022-11-15T08:31:48;7.60;;;6.53;;
6077;SDS011;3067;49.470;10.394;2022-11-15T08:34:16;10.13;;;7.20;;
6077;SDS011;3067;49.470;10.394;2022-11-15T08:36:44;9.20;;;7.13;;
6077;SDS011;3067;49.470;10.394;2022-11-15T08:39:12;14.77;;;6.90;;
6077;SDS011;3067;49.470;10.394;2022-11-15T08:41:39;9.23;;;7.20;;
6077;SDS011;3067;49.470;10.394;2022-11-15T08:44:06;9.63;;;6.87;;
6077;SDS011;3067;49.470;10.394;2022-11-15T08:46:34;8.70;;;6.77;;
6077;SDS011;3067;49.470;10.394;2022-11-15T08:49:01;8.77;;;7.13;;
6077;SDS011;3067;49.470;10.394;2022-11-15T08:51:28;9.67;;;6.87;;
6077;SDS011;3067;49.470;10.394;2022-11-15T08:53:57;10.23;;;7.40;;
6077;SDS011;3067;49.470;10.394;2022-11-15T08:56:24;8.50;;;6.70;;
6077;SDS011;3067;49.470;10.394;2022-11-15T08:58:51;8.13;;;7.33;;
6077;SDS011;3067;49.470;10.394;2022-11-15T09:01:19;10.77;;;7.03;;
6077;SDS011;3067;49.470;10.394;2022-11-15T09:03:47;8.20;;;6.90;;
6077;SDS011;3067;49.470;10.394;2022-11-15T09:06:14;13.73;;;7.37;;
6077;SDS011;3067;49.470;10.394;2022-11-15T09:08:41;8.20;;;7.30;;
6077;SDS011;3067;49.470;10.394;2022-11-15T09:11:10;14.13;;;7.63;;
6077;SDS011;3067;49.470;10.394;2022-11-15T09:13:38;12.80;;;7.13;;
6077;SDS011;3067;49.470;10.394;2022-11-15T09:16:05;8.83;;;7.60;;
6077;SDS011;3067;49.470;10.394;2022-11-15T09:18:32;8.97;;;7.50;;
6077;SDS011;3067;49.470;10.394;2022-11-15T09:21:00;10.00;;;8.30;;
6077;SDS011;3067;49.470;10.394;2022-11-15T09:23:29;12.87;;;7.60;;
6077;SDS011;3067;49.470;10.394;2022-11-15T09:25:59;8.83;;;7.20;;
6077;SDS011;3067;49.470;10.394;2022-11-15T09:28:29;10.13;;;7.50;;
6077;SDS011;3067;49.470;10.394;2022-11-15T09:30:57;7.60;;;6.83;;
6077;SDS011;3067;49.470;10.394;2022-11-15T09:33:25;8.43;;;7.03;;
6077;SDS011;3067;49.470;10.394;2022-11-15T09:35:52;11.63;;;7.60;;
6077;SDS011;3067;49.470;10.394;2022-11-15T09:38:20;7.70;;;6.90;;
6077;SDS011;3067;49.470;10.394;2022-11-15T09:40:48;11.10;;;7.50;;
6077;SDS011;3067;49.470;10.394;2022-11-15T09:43:29;11.07;;;7.73;;
6077;SDS011;3067;49.470;10.394;2022-11-15T09:46:01;12.07;;;8.40;;
6077;SDS011;3067;49.470;10.394;2022-11-15T09:51:13;8.90;;;7.67;;
6077;SDS011;3067;49.470;10.394;2022-11-15T09:53:43;13.50;;;10.00;;
6077;SDS011;3067;49.470;10.394;2022-11-15T09:56:14;15.20;;;8.50;;
6077;SDS011;3067;49.470;10.394;2022-11-15T09:58:44;9.23;;;7.90;;
6077;SDS011;3067;49.470;10.394;2022-11-15T10:01:14;8.73;;;6.87;;
6077;SDS011;3067;49.470;10.394;2022-11-15T10:03:43;9.70;;;7.13;;
6077;SDS011;3067;49.470;10.394;2022-11-15T10:06:14;10.53;;;6.87;;
6077;SDS011;3067;49.470;10.394;2022-11-15T10:08:47;9.30;;;6.70;;
6077;SDS011;3067;49.470;10.394;2022-11-15T10:11:18;7.40;;;6.60;;
6077;SDS011;3067;49.470;10.394;2022-11-15T10:13:48;8.73;;;6.40;;
6077;SDS011;3067;49.470;10.394;2022-11-15T10:16:20;8.13;;;6.40;;
6077;SDS011;3067;49.470;10.394;2022-11-15T10:18:53;15.50;;;6.83;;
6077;SDS011;3067;49.470;10.394;2022-11-15T10:21:24;16.00;;;6.90;;
6077;SDS011;3067;49.470;10.394;2022-11-15T10:23:52;10.17;;;6.60;;
6077;SDS011;3067;49.470;10.394;2022-11-15T10:26:20;10.37;;;6.53;;
6077;SDS011;3067;49.470;10.394;2022-11-15T10:28:49;8.43;;;6.77;;
6077;SDS011;3067;49.470;10.394;2022-11-15T10:31:23;8.80;;;6.70;;
6077;SDS011;3067;49.470;10.394;2022-11-15T10:33:51;7.77;;;6.90;;
6077;SDS011;3067;49.470;10.394;2022-11-15T10:36:23;12.20;;;7.60;;
6077;SDS011;3067;49.470;10.394;2022-11-15T10:38:55;11.40;;;7.00;;
6077;SDS011;3067;49.470;10.394;2022-11-15T10:41:27;13.23;;;7.03;;
6077;SDS011;3067;49.470;10.394;2022-11-15T10:44:08;12.00;;;7.43;;
6077;SDS011;3067;49.470;10.394;2022-11-15T10:46:37;9.50;;;6.90;;
6077;SDS011;3067;49.470;10.394;2022-11-15T10:49:11;7.73;;;6.70;;
6077;SDS011;3067;49.470;10.394;2022-11-15T10:51:40;8.43;;;7.00;;
6077;SDS011;3067;49.470;10.394;2022-11-15T10:54:08;8.33;;;6.63;;
6077;SDS011;3067;49.470;10.394;2022-11-15T10:56:37;12.13;;;7.07;;
6077;SDS011;3067;49.470;10.394;2022-11-15T10:59:12;7.30;;;6.50;;
6077;SDS011;3067;49.470;10.394;2022-11-15T11:01:45;8.37;;;6.07;;
6077;SDS011;3067;49.470;10.394;2022-11-15T11:04:13;8.43;;;6.23;;
6077;SDS011;3067;49.470;10.394;2022-11-15T11:06:47;13.73;;;5.53;;
6077;SDS011;3067;49.470;10.394;2022-11-15T11:11:56;13.87;;;7.17;;
6077;SDS011;3067;49.470;10.394;2022-11-15T11:14:29;7.10;;;6.40;;
6077;SDS011;3067;49.470;10.394;2022-11-15T11:17:00;6.97;;;6.30;;
6077;SDS011;3067;49.470;10.394;2022-11-15T11:19:38;8.83;;;7.33;;
6077;SDS011;3067;49.470;10.394;2022-11-15T11:22:11;10.17;;;8.00;;
6077;SDS011;3067;49.470;10.394;2022-11-15T11:24:41;8.43;;;7.40;;
6077;SDS011;3067;49.470;10.394;2022-11-15T11:27:16;15.23;;;9.13;;
6077;SDS011;3067;49.470;10.394;2022-11-15T11:29:49;13.13;;;9.87;;
6077;SDS011;3067;49.470;10.394;2022-11-15T11:32:26;16.03;;;9.10;;
6077;SDS011;3067;49.470;10.394;2022-11-15T11:34:57;13.60;;;9.23;;
6077;SDS011;3067;49.470;10.394;2022-11-15T11:37:28;12.53;;;7.70;;
6077;SDS011;3067;49.470;10.394;2022-11-15T11:40:00;12.80;;;7.90;;
6077;SDS011;3067;49.470;10.394;2022-11-15T11:42:32;8.80;;;6.53;;
6077;SDS011;3067;49.470;10.394;2022-11-15T11:45:05;8.00;;;6.50;;
6077;SDS011;3067;49.470;10.394;2022-11-15T11:47:40;6.97;;;6.20;;
6077;SDS011;3067;49.470;10.394;2022-11-15T11:50:10;8.97;;;6.67;;
6077;SDS011;3067;49.470;10.394;2022-11-15T11:52:40;11.70;;;6.50;;
6077;SDS011;3067;49.470;10.394;2022-11-15T11:55:12;11.47;;;6.13;;
6077;SDS011;3067;49.470;10.394;2022-11-15T11:57:41;9.33;;;6.27;;
6077;SDS011;3067;49.470;10.394;2022-11-15T12:00:16;19.37;;;6.57;;
6077;SDS011;3067;49.470;10.394;2022-11-15T12:02:47;10.47;;;6.30;;
6077;SDS011;3067;49.470;10.394;2022-11-15T12:05:16;10.23;;;8.00;;
6077;SDS011;3067;49.470;10.394;2022-11-15T12:07:45;18.43;;;10.20;;
6077;SDS011;3067;49.470;10.394;2022-11-15T12:10:18;28.57;;;14.00;;
6077;SDS011;3067;49.470;10.394;2022-11-15T12:12:49;18.40;;;8.27;;
6077;SDS011;3067;49.470;10.394;2022-11-15T12:15:19;8.10;;;6.13;;
6077;SDS011;3067;49.470;10.394;2022-11-15T12:17:48;8.03;;;5.50;;
6077;SDS011;3067;49.470;10.394;2022-11-15T12:20:16;6.50;;;5.83;;
6077;SDS011;3067;49.470;10.394;2022-11-15T12:22:46;7.60;;;6.63;;
6077;SDS011;3067;49.470;10.394;2022-11-15T12:25:15;10.13;;;6.13;;
6077;SDS011;3067;49.470;10.394;2022-11-15T12:27:44;8.23;;;6.10;;
6077;SDS011;3067;49.470;10.394;2022-11-15T12:30:14;9.47;;;5.73;;
6077;SDS011;3067;49.470;10.394;2022-11-15T12:32:50;9.33;;;6.90;;
6077;SDS011;3067;49.470;10.394;2022-11-15T12:35:23;12.57;;;6.53;;
6077;SDS011;3067;49.470;10.394;2022-11-15T12:37:52;9.33;;;6.30;;
6077;SDS011;3067;49.470;10.394;2022-11-15T12:40:29;8.87;;;6.30;;
6077;SDS011;3067;49.470;10.394;2022-11-15T12:42:58;14.47;;;6.10;;
6077;SDS011;3067;49.470;10.394;2022-11-15T12:45:26;6.57;;;5.90;;
6077;SDS011;3067;49.470;10.394;2022-11-15T12:48:03;7.83;;;6.40;;
6077;SDS011;3067;49.470;10.394;2022-11-15T12:50:54;7.83;;;6.03;;
6077;SDS011;3067;49.470;10.394;2022-11-15T12:53:26;9.53;;;5.77;;
6077;SDS011;3067;49.470;10.394;2022-11-15T12:56:15;6.97;;;5.93;;
6077;SDS011;3067;49.470;10.394;2022-11-15T12:58:45;8.10;;;6.90;;
6077;SDS011;3067;49.470;10.394;2022-11-15T13:04:11;9.47;;;7.10;;
6077;SDS011;3067;49.470;10.394;2022-11-15T13:06:40;6.13;;;5.60;;
6077;SDS011;3067;49.470;10.394;2022-11-15T13:11:54;9.90;;;6.13;;
6077;SDS011;3067;49.470;10.394;2022-11-15T13:19:57;5.50;;;5.00;;
6077;SDS011;3067;49.470;10.394;2022-11-15T13:22:26;6.23;;;4.60;;
6077;SDS011;3067;49.470;10.394;2022-11-15T13:25:27;8.57;;;4.87;;
6077;SDS011;3067;49.470;10.394;2022-11-15T13:27:57;5.33;;;4.93;;
6077;SDS011;3067;49.470;10.394;2022-11-15T13:30:25;3.77;;;3.57;;
6077;SDS011;3067;49.470;10.394;2022-11-15T13:32:53;3.30;;;3.10;;
6077;SDS011;3067;49.470;10.394;2022-11-15T13:35:23;3.40;;;3.20;;
6077;SDS011;3067;49.470;10.394;2022-11-15T13:37:50;10.67;;;5.23;;
6077;SDS011;3067;49.470;10.394;2022-11-15T13:40:20;8.70;;;6.20;;
6077;SDS011;3067;49.470;10.394;2022-11-15T13:42:48;7.30;;;5.60;;
6077;SDS011;3067;49.470;10.394;2022-11-15T13:45:17;6.90;;;3.80;;
6077;SDS011;3067;49.470;10.394;2022-11-15T13:47:47;3.60;;;3.30;;
6077;SDS011;3067;49.470;10.394;2022-11-15T13:50:17;2.80;;;2.60;;
6077;SDS011;3067;49.470;10.394;2022-11-15T13:52:48;5.63;;;2.67;;
6077;SDS011;3067;49.470;10.394;2022-11-15T13:55:16;3.10;;;2.50;;
6077;SDS011;3067;49.470;10.394;2022-11-15T13:57:45;2.63;;;2.53;;
6077;SDS011;3067;49.470;10.394;2022-11-15T14:00:26;2.63;;;2.53;;
6077;SDS011;3067;49.470;10.394;2022-11-15T14:02:54;4.33;;;2.50;;
6077;SDS011;3067;49.470;10.394;2022-11-15T14:05:22;2.50;;;2.40;;
6077;SDS011;3067;49.470;10.394;2022-11-15T14:07:55;2.93;;;2.73;;
6077;SDS011;3067;49.470;10.394;2022-11-15T14:10:27;3.03;;;2.83;;
6077;SDS011;3067;49.470;10.394;2022-11-15T14:12:55;2.67;;;2.57;;
6077;SDS011;3067;49.470;10.394;2022-11-15T14:15:27;2.40;;;2.30;;
6077;SDS011;3067;49.470;10.394;2022-11-15T14:17:54;2.60;;;2.50;;
6077;SDS011;3067;49.470;10.394;2022-11-15T14:20:26;3.13;;;2.90;;
6077;SDS011;3067;49.470;10.394;2022-11-15T14:22:55;3.10;;;2.80;;
6077;SDS011;3067;49.470;10.394;2022-11-15T14:25:23;2.90;;;2.80;;
6077;SDS011;3067;49.470;10.394;2022-11-15T14:30:37;2.93;;;2.73;;
6077;SDS011;3067;49.470;10.394;2022-11-15T14:33:15;5.20;;;2.90;;
6077;SDS011;3067;49.470;10.394;2022-11-15T14:35:44;7.53;;;2.73;;
6077;SDS011;3067;49.470;10.394;2022-11-15T14:38:13;2.73;;;2.57;;
6077;SDS011;3067;49.470;10.394;2022-11-15T14:40:40;2.60;;;2.40;;
6077;SDS011;3067;49.470;10.394;2022-11-15T14:43:08;2.70;;;2.60;;
6077;SDS011;3067;49.470;10.394;2022-11-15T14:45:35;3.20;;;2.83;;
6077;SDS011;3067;49.470;10.394;2022-11-15T14:48:02;2.80;;;2.60;;
6077;SDS011;3067;49.470;10.394;2022-11-15T14:50:30;6.10;;;2.90;;
6077;SDS011;3067;49.470;10.394;2022-11-15T14:52:58;4.23;;;2.77;;
6077;SDS011;3067;49.470;10.394;2022-11-15T14:55:28;6.27;;;3.63;;
6077;SDS011;3067;49.470;10.394;2022-11-15T14:57:57;3.80;;;3.50;;
6077;SDS011;3067;49.470;10.394;2022-11-15T15:00:24;3.80;;;3.20;;
6077;SDS011;3067;49.470;10.394;2022-11-15T15:02:52;5.80;;;3.63;;
6077;SDS011;3067;49.470;10.394;2022-11-15T15:05:20;3.50;;;3.30;;
6077;SDS011;3067;49.470;10.394;2022-11-15T15:07:48;3.40;;;3.20;;
6077;SDS011;3067;49.470;10.394;2022-11-15T15:10:16;5.90;;;3.23;;
6077;SDS011;3067;49.470;10.394;2022-11-15T15:12:45;3.07;;;2.87;;
6077;SDS011;3067;49.470;10.394;2022-11-15T15:15:13;4.30;;;3.03;;
6077;SDS011;3067;49.470;10.394;2022-11-15T15:17:41;10.00;;;3.20;;
6077;SDS011;3067;49.470;10.394;2022-11-15T15:20:08;3.80;;;3.53;;
6077;SDS011;3067;49.470;10.394;2022-11-15T15:22:36;4.07;;;3.77;;
6077;SDS011;3067;49.470;10.394;2022-11-15T15:25:09;4.27;;;3.87;;
6077;SDS011;3067;49.470;10.394;2022-11-15T15:27:45;3.90;;;3.60;;
6077;SDS011;3067;49.470;10.394;2022-11-15T15:30:13;3.57;;;3.33;;
6077;SDS011;3067;49.470;10.394;2022-11-15T15:32:40;4.40;;;3.50;;
6077;SDS011;3067;49.470;10.394;2022-11-15T15:35:10;4.50;;;3.60;;